Time;durP1;ratioP1;P1;durP2;ratioP2;P2;SDS_P1;SDS_P2;PMS_P1;PMS_P2;Temp;Humidity;BMP_temperature;BMP_pressure;BME280_temperature;BME280_humidity;BME280_pressure;Samples;Min_cycle;Max_cycle;Signal;HPM_P1;HPM_P2
2021/03/31 00:01:34;;;;;;;46.28;22.13;;;2.80;83.00;;;;;;5055713;28;20446;-78
2021/03/31 00:04:00;;;;;;;42.72;22.92;;;2.90;82.70;;;;;;5054494;28;20044;-77
2021/03/31 00:06:26;;;;;;;41.50;21.63;;;2.80;82.80;;;;;;5037701;28;20025;-78
2021/03/31 00:08:51;;;;;;;40.40;20.52;;;2.80;83.20;;;;;;5054870;28;20036;-77
2021/03/31 00:11:17;;;;;;;32.92;20.10;;;2.70;82.80;;;;;;5053602;28;20087;-77
2021/03/31 00:13:44;;;;;;;32.05;19.83;;;2.80;83.70;;;;;;5053775;28;20021;-78
2021/03/31 00:16:10;;;;;;;33.70;19.52;;;2.70;83.00;;;;;;5053770;28;20135;-78
2021/03/31 00:18:36;;;;;;;36.15;20.50;;;2.70;83.30;;;;;;5037094;28;20033;-77
2021/03/31 00:21:04;;;;;;;31.95;18.58;;;2.70;83.30;;;;;;5036558;28;20029;-77
2021/03/31 00:23:30;;;;;;;33.50;17.58;;;2.70;83.40;;;;;;5054558;28;20032;-77
2021/03/31 00:25:58;;;;;;;28.30;17.30;;;2.70;82.90;;;;;;5052876;28;20036;-78
2021/03/31 00:28:24;;;;;;;31.10;17.40;;;2.70;82.70;;;;;;5036839;28;20165;-77
2021/03/31 00:30:52;;;;;;;29.30;16.40;;;2.70;82.50;;;;;;5052921;28;20045;-78
2021/03/31 00:33:18;;;;;;;24.73;16.40;;;2.70;82.60;;;;;;5053240;28;20036;-77
2021/03/31 00:35:44;;;;;;;29.67;17.77;;;2.70;82.50;;;;;;5053860;28;20059;-77
2021/03/31 00:38:10;;;;;;;32.90;18.98;;;2.70;82.50;;;;;;5048947;28;20045;-77
2021/03/31 00:40:48;;;;;;;37.25;22.40;;;2.70;82.90;;;;;;5033285;28;20025;-77
2021/03/31 00:43:15;;;;;;;35.60;19.77;;;2.60;83.40;;;;;;5032998;28;20395;-77
2021/03/31 00:45:43;;;;;;;40.38;21.80;;;2.50;83.50;;;;;;5046762;28;20043;-77
2021/03/31 00:48:13;;;;;;;37.60;23.00;;;2.50;84.10;;;;;;5052933;28;20471;-77
2021/03/31 00:50:40;;;;;;;39.65;23.52;;;2.40;84.00;;;;;;5052877;28;20032;-77
2021/03/31 00:53:06;;;;;;;37.33;20.83;;;2.40;84.70;;;;;;5036082;28;20359;-77
2021/03/31 00:55:33;;;;;;;36.97;21.00;;;2.30;85.10;;;;;;5052228;28;20474;-77
2021/03/31 00:58:00;;;;;;;41.42;21.77;;;2.30;84.80;;;;;;5054148;28;20028;-77
2021/03/31 01:00:27;;;;;;;35.10;20.88;;;2.20;85.10;;;;;;5052798;28;20032;-77
2021/03/31 01:02:54;;;;;;;36.42;20.73;;;2.20;85.00;;;;;;5036016;28;20029;-77
2021/03/31 01:05:26;;;;;;;39.50;21.50;;;2.20;84.70;;;;;;5052549;28;20071;-77
2021/03/31 01:07:52;;;;;;;37.08;20.70;;;2.20;84.90;;;;;;5052128;28;20033;-77
2021/03/31 01:10:22;;;;;;;35.35;22.08;;;2.20;85.00;;;;;;5051561;28;20111;-77
2021/03/31 01:12:57;;;;;;;34.72;21.10;;;2.20;85.70;;;;;;5052558;28;20109;-77
2021/03/31 01:15:45;;;;;;;40.95;22.90;;;2.10;85.50;;;;;;5052641;28;20032;-77
2021/03/31 01:18:43;;;;;;;32.88;19.63;;;2.10;86.00;;;;;;5053306;28;20075;-77
2021/03/31 01:21:24;;;;;;;33.58;20.08;;;2.10;85.10;;;;;;5053376;28;20122;-77
2021/03/31 01:24:26;;;;;;;33.28;21.50;;;2.10;85.10;;;;;;5053163;28;20040;-77
2021/03/31 01:27:07;;;;;;;35.08;21.05;;;2.10;85.20;;;;;;5052251;28;20017;-77
2021/03/31 01:29:42;;;;;;;44.75;21.58;;;2.00;85.90;;;;;;5052476;28;20498;-78
2021/03/31 01:32:25;;;;;;;38.25;21.15;;;2.00;86.00;;;;;;5052597;28;20110;-77
2021/03/31 01:34:58;;;;;;;33.63;20.17;;;1.90;86.20;;;;;;5051871;28;20017;-77
2021/03/31 01:37:51;;;;;;;33.60;21.23;;;1.90;86.00;;;;;;5053655;28;20454;-78
2021/03/31 01:40:22;;;;;;;40.65;21.50;;;1.90;87.00;;;;;;5052309;28;20032;-78
2021/03/31 01:42:54;;;;;;;36.63;21.92;;;1.90;86.50;;;;;;5052173;28;20021;-77
2021/03/31 01:45:26;;;;;;;40.50;24.30;;;1.90;86.40;;;;;;5035070;28;20560;-77
2021/03/31 01:47:54;;;;;;;44.92;26.35;;;1.80;86.90;;;;;;5035917;28;20141;-77
2021/03/31 01:50:21;;;;;;;43.83;25.05;;;1.80;87.40;;;;;;5052999;28;20025;-77
2021/03/31 01:52:47;;;;;;;36.15;21.27;;;1.80;87.50;;;;;;5052060;28;20479;-77
2021/03/31 01:55:15;;;;;;;46.50;24.63;;;1.80;86.80;;;;;;5053515;28;20033;-77
2021/03/31 01:57:43;;;;;;;32.17;20.02;;;1.80;87.30;;;;;;5053291;28;20048;-77
2021/03/31 02:00:12;;;;;;;29.45;19.20;;;1.80;86.90;;;;;;5051733;28;20060;-77
2021/03/31 02:02:40;;;;;;;33.05;18.40;;;1.90;86.50;;;;;;5051401;28;20033;-77
2021/03/31 02:05:11;;;;;;;30.08;18.52;;;1.90;86.50;;;;;;5052376;28;20040;-77
2021/03/31 02:07:41;;;;;;;27.88;18.38;;;1.90;86.30;;;;;;5051910;28;20052;-77
2021/03/31 02:10:12;;;;;;;31.63;18.88;;;2.00;86.40;;;;;;5052345;28;20029;-77
2021/03/31 02:12:40;;;;;;;30.48;18.60;;;2.00;86.30;;;;;;5051956;28;20426;-77
2021/03/31 02:15:12;;;;;;;32.00;18.27;;;2.00;86.00;;;;;;5035216;28;20036;-77
2021/03/31 02:17:41;;;;;;;29.73;18.70;;;2.10;86.10;;;;;;5045397;28;20388;-77
2021/03/31 02:20:07;;;;;;;35.88;18.85;;;2.00;86.10;;;;;;5051607;28;20760;-77
2021/03/31 02:22:35;;;;;;;42.05;23.77;;;2.00;85.60;;;;;;5051526;28;20547;-77
2021/03/31 02:25:04;;;;;;;50.70;27.55;;;2.00;85.80;;;;;;5051591;28;20033;-77
2021/03/31 02:27:29;;;;;;;46.70;25.60;;;2.00;86.40;;;;;;5051837;28;20127;-77
2021/03/31 02:29:56;;;;;;;49.45;24.20;;;2.00;86.20;;;;;;5051422;28;20135;-77
2021/03/31 02:32:23;;;;;;;54.53;28.75;;;2.00;85.90;;;;;;5051206;28;20550;-77
2021/03/31 02:34:54;;;;;;;53.53;26.98;;;2.00;86.40;;;;;;5052053;28;20036;-77
2021/03/31 02:37:21;;;;;;;54.15;27.73;;;2.00;86.10;;;;;;5053638;28;20041;-77
2021/03/31 02:39:50;;;;;;;45.45;24.13;;;2.00;86.40;;;;;;5037620;28;20368;-77
2021/03/31 02:42:18;;;;;;;49.33;25.08;;;2.10;86.00;;;;;;5033606;28;20123;-77
2021/03/31 02:44:51;;;;;;;40.80;21.92;;;2.10;85.80;;;;;;5051370;28;20013;-77
2021/03/31 02:47:23;;;;;;;44.53;23.48;;;2.10;85.40;;;;;;5054847;28;20499;-77
2021/03/31 02:49:53;;;;;;;42.17;22.38;;;2.20;85.90;;;;;;5053052;28;20063;-77
2021/03/31 02:52:21;;;;;;;45.70;24.75;;;2.20;85.30;;;;;;5053121;28;20459;-77
2021/03/31 02:54:48;;;;;;;43.45;23.45;;;2.20;85.30;;;;;;5054252;28;20487;-77
2021/03/31 02:57:14;;;;;;;52.35;28.38;;;2.10;85.00;;;;;;5055472;28;20021;-78
2021/03/31 02:59:41;;;;;;;49.38;26.42;;;2.20;85.00;;;;;;5054263;28;20491;-77
2021/03/31 03:02:08;;;;;;;49.20;26.27;;;2.10;85.50;;;;;;5053840;28;20029;-77
2021/03/31 03:04:35;;;;;;;62.03;30.73;;;2.10;85.90;;;;;;5037553;28;20082;-77
2021/03/31 03:07:01;;;;;;;50.97;27.35;;;2.00;86.30;;;;;;5037551;28;20116;-78
2021/03/31 03:09:28;;;;;;;56.80;30.40;;;2.00;85.80;;;;;;5055510;28;20098;-77
2021/03/31 03:11:55;;;;;;;64.45;32.63;;;2.00;86.30;;;;;;5035151;28;20045;-77
2021/03/31 03:14:23;;;;;;;73.63;34.58;;;1.90;86.70;;;;;;5034103;28;20351;-78
2021/03/31 03:16:51;;;;;;;74.63;34.63;;;1.90;86.00;;;;;;5054012;28;20031;-77
2021/03/31 03:19:19;;;;;;;56.60;28.92;;;1.90;86.70;;;;;;5037714;28;20029;-77
2021/03/31 03:21:47;;;;;;;58.90;29.05;;;1.90;86.30;;;;;;5056045;28;20031;-77
2021/03/31 03:24:15;;;;;;;56.63;27.25;;;1.90;86.40;;;;;;5054335;28;20029;-77
2021/03/31 03:26:41;;;;;;;49.15;24.90;;;1.90;86.30;;;;;;5054643;28;20090;-76
2021/03/31 03:29:10;;;;;;;40.35;20.75;;;2.00;86.60;;;;;;5055524;28;20475;-77
2021/03/31 03:31:38;;;;;;;56.47;27.55;;;2.00;86.10;;;;;;5037690;28;20115;-77
2021/03/31 03:34:07;;;;;;;45.15;21.48;;;2.00;86.90;;;;;;5054268;28;20025;-77
2021/03/31 03:36:35;;;;;;;43.83;23.88;;;2.00;86.40;;;;;;5054338;28;20108;-77
2021/03/31 03:39:04;;;;;;;35.05;19.95;;;2.00;86.90;;;;;;5053872;28;20128;-77
2021/03/31 03:41:30;;;;;;;44.15;23.20;;;2.00;86.20;;;;;;5054435;28;20033;-77
2021/03/31 03:43:56;;;;;;;43.63;22.38;;;2.00;86.70;;;;;;5054546;28;20032;-77
2021/03/31 03:46:22;;;;;;;39.30;21.83;;;2.00;86.60;;;;;;5053847;28;20029;-78
2021/03/31 03:48:48;;;;;;;47.42;25.20;;;2.00;86.70;;;;;;5054896;28;20063;-77
2021/03/31 03:51:15;;;;;;;43.42;23.33;;;2.00;87.30;;;;;;5055182;28;20143;-78
2021/03/31 03:53:41;;;;;;;38.83;21.65;;;2.00;86.90;;;;;;5055325;28;20029;-78
2021/03/31 03:56:12;;;;;;;43.70;22.85;;;2.10;86.60;;;;;;5053188;28;20021;-74
2021/03/31 03:58:39;;;;;;;49.47;26.13;;;2.20;86.30;;;;;;5054360;28;20467;-74
2021/03/31 04:01:06;;;;;;;43.22;23.65;;;2.30;86.50;;;;;;5053161;28;20424;-74
2021/03/31 04:03:32;;;;;;;40.40;22.60;;;2.30;86.50;;;;;;5053661;28;20122;-75
2021/03/31 04:05:57;;;;;;;35.30;21.58;;;2.30;85.80;;;;;;5053633;28;20056;-74
2021/03/31 04:08:23;;;;;;;33.60;19.40;;;2.40;85.90;;;;;;5055029;28;20033;-74
2021/03/31 04:10:53;;;;;;;36.20;22.67;;;2.40;85.90;;;;;;5053461;28;20040;-74
2021/03/31 04:13:23;;;;;;;31.45;19.40;;;2.50;86.30;;;;;;5055175;28;20107;-74
2021/03/31 04:16:01;;;;;;;30.60;17.88;;;2.50;86.10;;;;;;5054494;28;20036;-74
2021/03/31 04:18:29;;;;;;;38.15;22.30;;;2.60;85.50;;;;;;5042971;28;20051;-74
2021/03/31 04:20:57;;;;;;;32.63;20.17;;;2.60;85.90;;;;;;5052437;28;20037;-74
2021/03/31 04:23:22;;;;;;;36.13;20.25;;;2.60;85.90;;;;;;5051781;28;20025;-74
2021/03/31 04:25:48;;;;;;;38.97;22.25;;;2.70;86.30;;;;;;5053835;28;20033;-74
2021/03/31 04:28:15;;;;;;;32.58;19.90;;;2.60;86.20;;;;;;5054057;28;20083;-74
2021/03/31 04:30:41;;;;;;;36.67;20.45;;;2.70;86.00;;;;;;5051931;28;20045;-74
2021/03/31 04:33:10;;;;;;;39.15;21.55;;;2.70;85.70;;;;;;5053160;28;20379;-74
2021/03/31 04:35:36;;;;;;;37.92;20.67;;;2.80;85.50;;;;;;5052604;28;20021;-74
2021/03/31 04:38:15;;;;;;;37.20;20.00;;;2.80;85.30;;;;;;5052389;28;20121;-74
2021/03/31 04:40:56;;;;;;;42.00;19.73;;;2.90;85.00;;;;;;5052391;28;20055;-74
2021/03/31 04:43:23;;;;;;;;;;;3.00;85.00;;;;;;5053872;28;20017;-74
2021/03/31 04:45:48;;;;;;;34.83;20.27;;;3.00;85.40;;;;;;5053204;28;19905;-74
2021/03/31 04:48:14;;;;;;;38.40;20.17;;;3.10;84.90;;;;;;5051509;28;20017;-75
2021/03/31 04:50:40;;;;;;;45.38;22.70;;;3.20;84.80;;;;;;5051884;28;20059;-74
2021/03/31 04:53:06;;;;;;;34.35;19.83;;;3.30;84.40;;;;;;5053196;28;20111;-74
2021/03/31 04:55:32;;;;;;;40.28;23.40;;;3.40;84.40;;;;;;5051891;28;20416;-74
2021/03/31 04:57:58;;;;;;;41.85;22.35;;;3.50;84.30;;;;;;5051867;28;20029;-75
2021/03/31 05:00:24;;;;;;;40.90;22.30;;;3.50;83.90;;;;;;5051329;28;20062;-75
2021/03/31 05:02:50;;;;;;;32.38;19.25;;;3.70;83.50;;;;;;5051702;28;20032;-75
2021/03/31 05:05:16;;;;;;;29.70;19.27;;;3.70;83.30;;;;;;5052060;28;20024;-75
2021/03/31 05:07:41;;;;;;;53.33;23.20;;;3.90;82.80;;;;;;5051326;28;20021;-75
2021/03/31 05:10:08;;;;;;;38.60;22.38;;;3.90;82.90;;;;;;5051345;28;20021;-75
2021/03/31 05:12:33;;;;;;;47.03;26.02;;;4.00;82.70;;;;;;5051609;28;20390;-75
2021/03/31 05:14:59;;;;;;;51.35;26.80;;;4.10;82.50;;;;;;5052941;28;20025;-75
2021/03/31 05:17:24;;;;;;;50.47;26.52;;;4.20;82.60;;;;;;5052744;28;20021;-75
2021/03/31 05:19:50;;;;;;;47.63;26.40;;;4.30;82.20;;;;;;5053490;28;20025;-75
2021/03/31 05:22:16;;;;;;;40.30;23.90;;;4.40;81.70;;;;;;5052547;28;20031;-74
2021/03/31 05:24:42;;;;;;;47.15;26.17;;;4.50;81.40;;;;;;5052614;28;20021;-74
2021/03/31 05:27:08;;;;;;;45.60;23.42;;;4.60;79.80;;;;;;5052739;28;20021;-78
2021/03/31 05:29:33;;;;;;;31.60;19.05;;;4.70;80.30;;;;;;5052607;28;20081;-78
2021/03/31 05:32:00;;;;;;;34.47;20.52;;;4.80;80.10;;;;;;5053481;28;20363;-78
2021/03/31 05:34:26;;;;;;;33.13;17.27;;;4.90;79.40;;;;;;5053472;28;20029;-78
2021/03/31 05:36:52;;;;;;;35.30;20.33;;;5.00;79.10;;;;;;5052775;28;20040;-79
2021/03/31 05:39:18;;;;;;;38.60;20.85;;;5.10;79.00;;;;;;5052634;28;20021;-79
2021/03/31 05:41:44;;;;;;;34.53;20.80;;;5.10;77.80;;;;;;5052629;28;20029;-79
2021/03/31 05:44:10;;;;;;;33.95;20.10;;;5.20;78.10;;;;;;5052729;28;20033;-79
2021/03/31 05:46:39;;;;;;;29.67;19.70;;;5.30;77.30;;;;;;5052622;28;20032;-78
2021/03/31 05:49:05;;;;;;;34.20;18.95;;;5.40;77.40;;;;;;5053692;28;20020;-79
2021/03/31 05:51:34;;;;;;;32.65;19.70;;;5.50;77.10;;;;;;5052518;28;20385;-79
2021/03/31 05:54:00;;;;;;;40.83;20.95;;;5.60;76.90;;;;;;5052236;28;20359;-79
2021/03/31 05:56:30;;;;;;;35.05;22.13;;;5.80;76.30;;;;;;5052152;28;20035;-79
2021/03/31 05:58:57;;;;;;;46.10;23.23;;;5.70;76.40;;;;;;5052507;28;20017;-79
2021/03/31 06:01:23;;;;;;;38.15;21.17;;;5.60;76.60;;;;;;5052442;28;20036;-79
2021/03/31 06:03:48;;;;;;;36.97;22.33;;;5.70;77.00;;;;;;5053778;28;20025;-79
2021/03/31 06:06:14;;;;;;;35.47;20.73;;;5.90;76.80;;;;;;5052389;28;20029;-79
2021/03/31 06:08:40;;;;;;;34.50;20.45;;;5.90;76.60;;;;;;5053902;28;20364;-79
2021/03/31 06:11:06;;;;;;;43.35;24.00;;;6.00;76.50;;;;;;5053480;28;20025;-79
2021/03/31 06:13:51;;;;;;;34.28;20.85;;;6.00;76.00;;;;;;5052311;28;20434;-79
2021/03/31 06:16:30;;;;;;;40.10;21.40;;;6.10;76.10;;;;;;5052187;28;20021;-81
2021/03/31 06:18:56;;;;;;;44.83;24.17;;;6.20;76.00;;;;;;5051512;28;20028;-81
2021/03/31 06:21:22;;;;;;;39.22;21.58;;;6.20;75.90;;;;;;5055243;28;20025;-81
2021/03/31 06:26:29;;;;;;;43.33;25.02;;;6.40;75.70;;;;;;5055600;28;20033;-82
2021/03/31 06:28:58;;;;;;;35.10;22.10;;;6.40;75.50;;;;;;5054154;28;20039;-79
2021/03/31 06:31:32;;;;;;;38.90;23.90;;;6.50;75.30;;;;;;5054965;28;20049;-79
2021/03/31 06:34:06;;;;;;;31.25;19.83;;;6.60;75.60;;;;;;5054289;28;20417;-79
2021/03/31 06:36:38;;;;;;;39.13;22.42;;;6.70;75.60;;;;;;5055366;28;20021;-78
2021/03/31 06:39:31;;;;;;;59.38;33.28;;;6.80;75.20;;;;;;5055298;28;20025;-77
2021/03/31 06:41:59;;;;;;;93.57;54.17;;;6.80;74.90;;;;;;5053777;28;20364;-78
2021/03/31 06:44:35;;;;;;;53.85;33.58;;;6.90;75.50;;;;;;5053844;28;20541;-78
2021/03/31 06:47:53;;;;;;;37.13;22.00;;;7.10;75.30;;;;;;5053671;28;20087;-78
2021/03/31 06:49:48;;;;;;;33.90;20.90;;;7.30;75.20;;;;;;5050700;28;20035;-78
2021/03/31 06:52:14;;;;;;;32.05;21.33;;;7.40;74.60;;;;;;5053551;28;20056;-78
2021/03/31 06:54:44;;;;;;;28.55;18.65;;;7.60;74.60;;;;;;5053360;28;20052;-77
2021/03/31 06:57:13;;;;;;;41.08;23.20;;;7.70;74.40;;;;;;5054789;28;20079;-78
2021/03/31 06:59:39;;;;;;;35.35;22.95;;;7.90;72.90;;;;;;5053629;28;20835;-78
2021/03/31 07:02:05;;;;;;;37.47;23.23;;;7.90;73.40;;;;;;5053622;28;20025;-78
2021/03/31 07:04:32;;;;;;;34.40;21.88;;;8.00;73.10;;;;;;5053844;28;20029;-80
2021/03/31 07:07:06;;;;;;;43.47;24.13;;;8.00;72.70;;;;;;5055134;28;20080;-80
2021/03/31 07:09:32;;;;;;;36.78;22.40;;;8.00;72.50;;;;;;5053387;28;20509;-80
2021/03/31 07:11:57;;;;;;;36.70;21.90;;;8.10;73.10;;;;;;5053075;28;20112;-79
2021/03/31 07:14:24;;;;;;;42.55;25.83;;;8.20;73.10;;;;;;5053255;28;20032;-79
2021/03/31 07:16:50;;;;;;;33.15;21.70;;;8.30;73.20;;;;;;5053188;28;20025;-79
2021/03/31 07:19:17;;;;;;;36.38;24.17;;;8.50;73.30;;;;;;5054254;28;20426;-79
2021/03/31 07:21:43;;;;;;;33.53;22.27;;;8.60;72.30;;;;;;5055080;28;20497;-80
2021/03/31 07:24:13;;;;;;;27.88;18.75;;;8.70;72.50;;;;;;5055163;28;20079;-80
2021/03/31 07:26:40;;;;;;;25.88;18.15;;;8.70;69.60;;;;;;5056461;28;20036;-80
2021/03/31 07:29:06;;;;;;;28.77;17.95;;;8.70;69.70;;;;;;5054670;28;20029;-81
2021/03/31 07:31:32;;;;;;;30.85;20.70;;;8.70;69.10;;;;;;5053772;28;20028;-80
2021/03/31 07:34:25;;;;;;;37.58;24.98;;;8.70;69.00;;;;;;5056182;28;20017;-80
2021/03/31 07:36:52;;;;;;;32.90;20.77;;;8.70;68.90;;;;;;5055060;28;20367;-80
2021/03/31 07:39:21;;;;;;;30.83;18.20;;;8.70;67.30;;;;;;5054897;28;20025;-81
2021/03/31 07:41:48;;;;;;;33.63;20.55;;;8.70;69.20;;;;;;5054609;28;20028;-79
2021/03/31 07:44:21;;;;;;;33.72;20.95;;;8.70;68.10;;;;;;5055270;28;20028;-80
2021/03/31 07:46:49;;;;;;;33.75;21.85;;;8.90;68.00;;;;;;5054710;28;20046;-80
2021/03/31 07:49:17;;;;;;;31.92;20.38;;;8.70;68.20;;;;;;5054490;28;20021;-79
2021/03/31 07:52:01;;;;;;;32.13;19.33;;;8.90;68.40;;;;;;5055467;28;20076;-80
2021/03/31 07:54:27;;;;;;;32.55;18.77;;;8.90;68.00;;;;;;5055981;28;20075;-80
2021/03/31 07:56:55;;;;;;;30.20;20.95;;;9.10;67.30;;;;;;5054600;28;20021;-79
2021/03/31 07:59:21;;;;;;;27.70;16.63;;;9.10;67.10;;;;;;5054539;28;20025;-80
2021/03/31 08:01:48;;;;;;;33.78;21.42;;;9.40;67.10;;;;;;5058372;28;20021;-80
2021/03/31 08:04:16;;;;;;;30.42;18.05;;;9.40;66.10;;;;;;5067371;28;20039;-81
2021/03/31 08:06:43;;;;;;;25.95;16.23;;;9.60;66.00;;;;;;5054436;28;20032;-81
2021/03/31 08:09:12;;;;;;;22.63;15.75;;;9.70;65.20;;;;;;5055764;28;20048;-81
2021/03/31 08:11:43;;;;;;;30.48;20.20;;;9.70;65.70;;;;;;5054135;28;20017;-80
2021/03/31 08:14:36;;;;;;;29.63;17.05;;;9.80;65.20;;;;;;5054205;28;20071;-80
2021/03/31 08:17:06;;;;;;;32.83;21.15;;;9.90;64.00;;;;;;5053470;28;20025;-80
2021/03/31 08:19:43;;;;;;;26.02;18.95;;;9.90;65.30;;;;;;5053725;28;20025;-80
2021/03/31 08:22:30;;;;;;;31.65;21.70;;;10.00;64.70;;;;;;5052025;28;20041;-80
2021/03/31 08:24:58;;;;;;;27.10;19.02;;;10.20;63.70;;;;;;5053139;28;20025;-81
2021/03/31 08:27:24;;;;;;;26.55;18.10;;;10.20;64.40;;;;;;5051897;28;20032;-79
2021/03/31 08:29:54;;;;;;;28.30;17.02;;;10.30;63.80;;;;;;5053113;28;20049;-80
2021/03/31 08:32:21;;;;;;;23.88;14.85;;;10.50;63.60;;;;;;5051749;28;20048;-78
2021/03/31 08:34:46;;;;;;;30.40;18.05;;;10.60;63.40;;;;;;5052112;28;20090;-78
2021/03/31 08:37:24;;;;;;;21.63;14.27;;;10.70;63.00;;;;;;5053366;28;20379;-77
2021/03/31 08:39:51;;;;;;;27.17;17.13;;;10.80;63.40;;;;;;5051626;28;20489;-78
2021/03/31 08:42:17;;;;;;;36.50;20.30;;;10.90;62.70;;;;;;5051360;28;20036;-77
2021/03/31 08:44:51;;;;;;;50.47;23.25;;;10.80;62.50;;;;;;5051516;28;20036;-76
2021/03/31 08:47:22;;;;;;;41.63;24.45;;;10.90;62.40;;;;;;5051439;28;20021;-77
2021/03/31 08:50:00;;;;;;;27.50;17.85;;;10.90;62.60;;;;;;5051734;28;20028;-77
2021/03/31 08:52:33;;;;;;;32.88;23.95;;;11.00;62.60;;;;;;5051230;28;20063;-77
2021/03/31 08:55:00;;;;;;;31.70;20.08;;;10.90;62.60;;;;;;5052693;28;20059;-76
2021/03/31 08:57:28;;;;;;;31.60;20.17;;;11.00;62.40;;;;;;5051293;28;20075;-77
2021/03/31 08:59:58;;;;;;;30.60;19.25;;;10.90;63.50;;;;;;5051233;28;20021;-76
2021/03/31 09:02:30;;;;;;;29.20;20.03;;;11.00;63.40;;;;;;5052444;28;20024;-77
2021/03/31 09:04:57;;;;;;;36.60;27.17;;;11.10;63.10;;;;;;5051393;28;20037;-76
2021/03/31 09:07:24;;;;;;;36.25;22.83;;;11.10;63.50;;;;;;5051347;28;20128;-77
2021/03/31 09:09:50;;;;;;;26.25;17.27;;;11.00;63.80;;;;;;5051152;28;20040;-77
2021/03/31 09:12:17;;;;;;;26.75;17.42;;;11.20;63.10;;;;;;5051321;28;20469;-76
2021/03/31 09:14:54;;;;;;;36.33;23.13;;;11.20;63.00;;;;;;5052528;28;20025;-76
2021/03/31 09:17:23;;;;;;;25.50;17.13;;;11.10;63.60;;;;;;5050900;28;20025;-77
2021/03/31 09:20:05;;;;;;;31.02;16.58;;;11.40;62.90;;;;;;5052214;28;20046;-77
2021/03/31 09:22:31;;;;;;;30.08;17.05;;;11.50;62.70;;;;;;5052776;28;20482;-77
2021/03/31 09:25:09;;;;;;;25.65;16.90;;;11.60;62.70;;;;;;5052885;28;20083;-77
2021/03/31 09:27:35;;;;;;;24.17;16.40;;;11.70;62.90;;;;;;5052863;28;20383;-77
2021/03/31 09:30:07;;;;;;;24.23;16.60;;;11.90;62.70;;;;;;5053618;28;20048;-76
2021/03/31 09:32:37;;;;;;;24.27;14.57;;;12.00;61.90;;;;;;5052521;28;20029;-77
2021/03/31 09:35:14;;;;;;;22.67;16.23;;;12.10;62.00;;;;;;5052641;28;20028;-77
2021/03/31 09:37:51;;;;;;;27.13;18.38;;;12.30;61.90;;;;;;5053902;28;20355;-77
2021/03/31 09:40:29;;;;;;;30.65;17.13;;;12.50;61.00;;;;;;5052825;28;20033;-77
2021/03/31 09:43:05;;;;;;;32.15;21.10;;;12.60;59.80;;;;;;5036153;28;20530;-77
2021/03/31 09:45:37;;;;;;;38.05;28.58;;;12.70;59.70;;;;;;5053766;28;20104;-77
2021/03/31 09:48:04;;;;;;;24.02;17.88;;;12.70;59.00;;;;;;5052692;28;20037;-77
2021/03/31 09:50:43;;;;;;;22.38;16.80;;;12.80;59.30;;;;;;5047354;28;20067;-77
2021/03/31 09:53:11;;;;;;;18.25;13.98;;;12.90;59.50;;;;;;5053599;28;20471;-76
2021/03/31 09:55:38;;;;;;;36.00;25.88;;;13.00;59.40;;;;;;5051685;28;20037;-76
2021/03/31 09:58:05;;;;;;;35.00;21.73;;;13.00;58.70;;;;;;5053490;28;20025;-76
2021/03/31 10:00:59;;;;;;;24.70;18.10;;;13.10;58.10;;;;;;5035777;28;20032;-76
2021/03/31 10:03:27;;;;;;;44.58;33.40;;;13.20;57.40;;;;;;5052251;28;20053;-76
2021/03/31 10:05:53;;;;;;;23.13;17.00;;;13.20;56.20;;;;;;5036084;28;20059;-76
2021/03/31 10:08:22;;;;;;;21.73;14.75;;;13.30;55.20;;;;;;5051929;28;20471;-77
2021/03/31 10:10:58;;;;;;;18.50;12.93;;;13.40;55.50;;;;;;5052208;28;20053;-76
2021/03/31 10:13:37;;;;;;;25.02;14.30;;;13.40;55.90;;;;;;5052179;28;20025;-76
2021/03/31 10:16:07;;;;;;;25.58;16.70;;;13.60;55.20;;;;;;5053588;28;20063;-76
2021/03/31 10:18:36;;;;;;;38.25;21.70;;;13.50;55.00;;;;;;5035227;28;20461;-75
2021/03/31 10:21:04;;;;;;;30.00;21.75;;;13.30;53.80;;;;;;5051414;28;20033;-75
2021/03/31 10:23:35;;;;;;;26.48;18.15;;;13.50;55.20;;;;;;5049937;28;20037;-76
2021/03/31 10:26:27;;;;;;;26.45;18.92;;;13.50;54.80;;;;;;5051615;28;20036;-76
2021/03/31 10:29:03;;;;;;;19.17;14.35;;;13.50;54.70;;;;;;5051488;28;20056;-75
2021/03/31 10:31:44;;;;;;;19.65;13.18;;;13.70;54.60;;;;;;5068072;28;20061;-76
2021/03/31 10:34:10;;;;;;;17.50;13.65;;;13.80;53.80;;;;;;5034142;28;20033;-76
2021/03/31 10:37:04;;;;;;;22.33;14.27;;;13.70;53.60;;;;;;5051563;28;20033;-77
2021/03/31 10:50:00;;;;;;;19.75;13.32;;;14.20;53.20;;;;;;5049885;28;20028;-79
2021/03/31 10:52:29;;;;;;;19.10;13.40;;;14.20;52.50;;;;;;5048047;28;20033;-77
2021/03/31 10:54:56;;;;;;;57.90;26.42;;;14.20;53.00;;;;;;5049592;28;20383;-77
2021/03/31 10:57:22;;;;;;;48.50;33.03;;;14.20;52.70;;;;;;5049490;28;20025;-77
2021/03/31 10:59:48;;;;;;;25.10;17.52;;;14.30;52.40;;;;;;5049122;28;20025;-76
2021/03/31 11:02:14;;;;;;;38.08;25.25;;;14.40;51.70;;;;;;5049542;28;20394;-77
2021/03/31 11:04:39;;;;;;;32.90;23.00;;;14.40;52.10;;;;;;5049240;28;20082;-77
2021/03/31 11:07:05;;;;;;;33.60;21.77;;;14.30;53.60;;;;;;5050544;28;20025;-78
2021/03/31 11:09:31;;;;;;;21.83;15.38;;;14.40;52.80;;;;;;5052960;28;20098;-76
2021/03/31 11:11:59;;;;;;;22.58;14.77;;;14.30;53.20;;;;;;5053620;28;20466;-76
2021/03/31 11:14:25;;;;;;;23.27;14.25;;;14.40;52.70;;;;;;5052997;28;20036;-77
2021/03/31 11:16:56;;;;;;;19.02;11.95;;;14.40;52.70;;;;;;5036489;28;20536;-75
2021/03/31 11:27:36;;;;;;;34.42;18.45;;;14.00;56.50;;;;;;5055956;28;20119;-74
2021/03/31 11:30:09;;;;;;;26.10;15.20;;;14.00;57.10;;;;;;5055347;28;20068;-74
2021/03/31 11:32:39;;;;;;;27.25;16.17;;;13.80;57.50;;;;;;5054059;28;20036;-75
2021/03/31 11:35:13;;;;;;;30.08;16.33;;;13.70;57.90;;;;;;5055172;28;20021;-74
2021/03/31 11:37:41;;;;;;;29.40;14.60;;;13.60;58.20;;;;;;5054581;28;20092;-75
2021/03/31 11:40:10;;;;;;;27.40;15.55;;;13.40;58.40;;;;;;5038154;28;20025;-75
2021/03/31 11:42:37;;;;;;;24.15;15.55;;;13.40;58.90;;;;;;5054276;28;20029;-75
2021/03/31 11:45:05;;;;;;;25.33;14.80;;;13.20;59.70;;;;;;5054569;28;20466;-75
2021/03/31 11:47:31;;;;;;;26.85;16.08;;;13.20;59.80;;;;;;5055824;28;20025;-75
2021/03/31 11:50:00;;;;;;;24.83;15.10;;;13.00;60.50;;;;;;5053592;28;20406;-75
2021/03/31 11:52:28;;;;;;;21.65;14.27;;;12.90;60.40;;;;;;5054987;28;20033;-75
2021/03/31 11:54:54;;;;;;;37.60;16.27;;;13.00;60.80;;;;;;5054372;28;20112;-74
2021/03/31 11:57:22;;;;;;;27.73;14.00;;;13.00;61.00;;;;;;5055102;28;20518;-74
2021/03/31 11:59:49;;;;;;;24.15;15.65;;;13.00;60.80;;;;;;5055023;28;20101;-74
2021/03/31 12:02:17;;;;;;;31.02;18.08;;;13.00;60.70;;;;;;5053596;28;20033;-74
2021/03/31 12:04:44;;;;;;;43.67;16.65;;;13.00;60.70;;;;;;5053926;28;20033;-78
2021/03/31 12:07:27;;;;;;;36.45;15.85;;;12.90;60.70;;;;;;5039378;28;20048;-77
2021/03/31 12:09:56;;;;;;;25.02;16.25;;;12.90;59.80;;;;;;5054421;28;20433;-74
2021/03/31 12:12:27;;;;;;;39.80;17.20;;;12.70;59.70;;;;;;5054729;28;20086;-77
2021/03/31 12:14:55;;;;;;;33.03;17.13;;;12.60;60.00;;;;;;5053448;28;20020;-73
2021/03/31 12:17:21;;;;;;;34.58;16.25;;;12.70;60.40;;;;;;5054106;28;20040;-76
2021/03/31 12:19:49;;;;;;;56.15;16.10;;;12.80;60.00;;;;;;5034576;28;20029;-85
2021/03/31 12:22:14;;;;;;;28.90;14.45;;;12.80;60.00;;;;;;5035370;28;20052;-87
2021/03/31 12:24:40;;;;;;;24.52;14.73;;;12.80;59.90;;;;;;5051166;28;20060;-82
2021/03/31 12:27:09;;;;;;;27.52;13.68;;;12.80;59.70;;;;;;5052890;28;20029;-84
2021/03/31 12:29:36;;;;;;;37.40;14.50;;;12.80;60.40;;;;;;5050959;28;20095;-81
2021/03/31 12:32:05;;;;;;;32.78;14.40;;;12.80;59.90;;;;;;5051759;28;20028;-81
2021/03/31 12:34:32;;;;;;;23.90;13.63;;;12.80;60.20;;;;;;5051210;28;20025;-81
2021/03/31 12:36:58;;;;;;;24.35;13.43;;;12.80;59.90;;;;;;5051454;28;20020;-84
2021/03/31 12:39:27;;;;;;;27.70;13.32;;;12.90;59.80;;;;;;5050868;28;20036;-78
2021/03/31 12:41:53;;;;;;;25.55;14.55;;;13.00;59.30;;;;;;5034569;28;20045;-78
2021/03/31 12:44:20;;;;;;;25.17;14.23;;;12.90;59.30;;;;;;5052534;28;20033;-78
2021/03/31 12:46:47;;;;;;;30.17;15.05;;;13.00;59.60;;;;;;5051190;28;20025;-78
2021/03/31 12:49:14;;;;;;;29.02;15.98;;;13.00;59.20;;;;;;5052101;28;20050;-78
2021/03/31 12:51:45;;;;;;;26.17;15.02;;;13.00;59.00;;;;;;5050810;28;20033;-78
2021/03/31 12:57:06;;;;;;;24.02;14.68;;;13.10;58.70;;;;;;5042348;28;19921;-78
2021/03/31 12:59:33;;;;;;;27.55;16.77;;;13.20;59.10;;;;;;5050489;28;20486;-77
2021/03/31 13:01:59;;;;;;;43.35;19.20;;;13.20;58.80;;;;;;5050854;28;20040;-78
2021/03/31 13:04:25;;;;;;;42.47;17.25;;;13.10;57.80;;;;;;5050870;28;20033;-77
2021/03/31 13:06:51;;;;;;;36.03;20.67;;;13.10;58.60;;;;;;5050731;28;20442;-78
2021/03/31 13:09:18;;;;;;;29.85;18.45;;;13.20;58.60;;;;;;5050716;28;20025;-77